Time;durP1;ratioP1;P1;durP2;ratioP2;P2;SDS_P1;SDS_P2;PMS_P1;PMS_P2;Temp;Humidity;BMP_temperature;BMP_pressure;BME280_temperature;BME280_humidity;BME280_pressure;Samples;Min_cycle;Max_cycle;Signal;HPM_P1;HPM_P2
2022/07/04 00:02:04;;;;;;;9.13;2.50;;;28.10;66.00;;;;;;5041101;28;20427;-61
2022/07/04 00:04:30;;;;;;;13.63;2.70;;;28.00;66.00;;;;;;5043488;28;20476;-62
2022/07/04 00:06:55;;;;;;;9.95;2.53;;;28.00;66.30;;;;;;5039895;28;20532;-62
2022/07/04 00:09:21;;;;;;;8.00;2.38;;;28.00;66.40;;;;;;5043914;28;20104;-62
2022/07/04 00:11:46;;;;;;;9.25;2.97;;;27.90;66.40;;;;;;5041357;28;20033;-62
2022/07/04 00:14:12;;;;;;;9.43;2.20;;;27.90;66.50;;;;;;5041084;28;20049;-62
2022/07/04 00:16:37;;;;;;;10.60;2.67;;;27.90;66.70;;;;;;5040112;28;20041;-63
2022/07/04 00:19:03;;;;;;;9.05;2.47;;;27.90;66.70;;;;;;5043944;28;20052;-61
2022/07/04 00:21:28;;;;;;;9.73;2.38;;;27.90;66.70;;;;;;5041837;28;21143;-61
2022/07/04 00:23:54;;;;;;;8.05;2.50;;;27.80;66.70;;;;;;5041219;28;20032;-62
2022/07/04 00:26:19;;;;;;;10.35;2.08;;;27.80;66.80;;;;;;5040797;28;20519;-64
2022/07/04 00:28:45;;;;;;;6.97;1.83;;;27.80;66.80;;;;;;5040776;28;20137;-63
2022/07/04 00:31:10;;;;;;;12.80;2.45;;;27.80;66.90;;;;;;5043730;28;20099;-62
2022/07/04 00:33:36;;;;;;;8.95;2.00;;;27.70;67.00;;;;;;5042951;28;20040;-62
2022/07/04 00:36:01;;;;;;;11.18;2.50;;;27.70;67.00;;;;;;5040534;28;20128;-61
2022/07/04 00:38:27;;;;;;;7.20;2.28;;;27.70;67.20;;;;;;5040381;28;20178;-62
2022/07/04 00:40:52;;;;;;;11.13;2.10;;;27.60;67.20;;;;;;5042106;28;20048;-62
2022/07/04 00:43:25;;;;;;;9.18;2.30;;;27.70;67.40;;;;;;5041462;28;20040;-62
2022/07/04 00:45:50;;;;;;;9.68;1.98;;;27.60;67.30;;;;;;5024695;28;20021;-61
2022/07/04 00:48:16;;;;;;;4.10;1.85;;;27.60;67.40;;;;;;5042372;28;20350;-62
2022/07/04 00:50:43;;;;;;;5.68;1.90;;;27.60;67.40;;;;;;5023582;28;20032;-61
2022/07/04 00:53:08;;;;;;;10.75;2.40;;;27.60;67.50;;;;;;5041910;28;20049;-61
2022/07/04 00:55:34;;;;;;;7.18;2.05;;;27.50;67.50;;;;;;5041270;28;20029;-61
2022/07/04 00:57:59;;;;;;;4.53;1.90;;;27.50;67.60;;;;;;5042951;28;20473;-61
2022/07/04 01:00:25;;;;;;;3.80;1.88;;;27.50;67.60;;;;;;5040768;28;20053;-62
2022/07/04 01:02:50;;;;;;;4.18;1.90;;;27.50;67.60;;;;;;5023613;28;20108;-62
2022/07/04 01:05:16;;;;;;;7.50;2.00;;;27.50;67.70;;;;;;5038624;28;20095;-62
2022/07/04 01:07:42;;;;;;;7.32;1.95;;;27.40;67.70;;;;;;5024403;28;20563;-63
2022/07/04 01:10:08;;;;;;;6.88;1.80;;;27.40;67.90;;;;;;5043238;28;20040;-62
2022/07/04 01:12:34;;;;;;;6.93;2.08;;;27.40;68.20;;;;;;5042361;28;20079;-61
2022/07/04 01:15:00;;;;;;;3.85;1.98;;;27.30;68.30;;;;;;5039785;28;20033;-62
2022/07/04 01:17:25;;;;;;;7.72;1.98;;;27.30;68.60;;;;;;5024507;28;20116;-62
2022/07/04 01:19:51;;;;;;;7.10;1.95;;;27.30;68.70;;;;;;5038212;28;20029;-61
2022/07/04 01:22:16;;;;;;;10.30;2.20;;;27.20;68.80;;;;;;5041571;28;20037;-62
2022/07/04 01:24:42;;;;;;;5.22;1.70;;;27.20;69.00;;;;;;5008769;28;20179;-63
2022/07/04 01:27:07;;;;;;;11.98;2.10;;;27.20;68.90;;;;;;5023772;28;20029;-62
2022/07/04 01:29:33;;;;;;;25.42;4.15;;;27.20;69.20;;;;;;5041631;28;20091;-62
2022/07/04 01:32:04;;;;;;;36.17;5.00;;;27.10;69.20;;;;;;5042237;28;20044;-61
2022/07/04 01:34:29;;;;;;;42.30;4.97;;;27.20;69.30;;;;;;5023471;28;20025;-61
2022/07/04 01:36:55;;;;;;;35.33;4.00;;;27.20;69.30;;;;;;5043279;28;20028;-62
2022/07/04 01:39:20;;;;;;;19.42;3.50;;;27.20;69.30;;;;;;5040265;28;20204;-62
2022/07/04 01:41:46;;;;;;;27.55;3.75;;;27.10;69.30;;;;;;5040397;28;20031;-62
2022/07/04 01:44:11;;;;;;;44.90;4.85;;;27.10;69.30;;;;;;5037676;28;20037;-61
2022/07/04 01:46:37;;;;;;;50.08;5.15;;;27.10;69.40;;;;;;5040091;28;20021;-62
2022/07/04 01:49:02;;;;;;;41.58;4.10;;;27.00;69.40;;;;;;5038451;28;20458;-62
2022/07/04 01:51:28;;;;;;;32.95;4.25;;;27.00;69.60;;;;;;5043153;28;20575;-62
2022/07/04 01:53:54;;;;;;;26.60;3.45;;;27.00;69.80;;;;;;5040004;28;20468;-62
2022/07/04 01:56:19;;;;;;;24.73;4.28;;;27.00;70.00;;;;;;5039526;28;20021;-62
2022/07/04 01:58:45;;;;;;;30.10;3.72;;;27.00;70.20;;;;;;5038859;28;20045;-60
2022/07/04 02:03:54;;;;;;;16.02;3.50;;;26.90;70.40;;;;;;5040530;28;20304;-62
2022/07/04 02:06:20;;;;;;;23.63;3.97;;;26.80;70.50;;;;;;5037954;28;20258;-61
2022/07/04 02:13:00;;;;;;;28.00;4.07;;;26.80;70.80;;;;;;5036586;28;20048;-62
2022/07/04 02:14:15;;;;;;;30.13;3.15;;;26.80;70.80;;;;;;5040612;28;20033;-62
2022/07/04 02:16:40;;;;;;;21.90;3.60;;;26.80;71.00;;;;;;5041153;28;20168;-62
2022/07/04 02:19:06;;;;;;;19.60;3.33;;;26.80;71.20;;;;;;5041392;28;20028;-61
2022/07/04 02:21:31;;;;;;;15.25;2.97;;;26.80;71.20;;;;;;5039765;28;20484;-61
2022/07/04 02:23:57;;;;;;;14.00;3.15;;;26.70;71.30;;;;;;5040687;28;20033;-61
2022/07/04 02:26:22;;;;;;;16.25;3.58;;;26.70;71.30;;;;;;5037045;28;20025;-63
2022/07/04 02:28:48;;;;;;;22.02;3.58;;;26.80;71.60;;;;;;5041382;28;20043;-63
2022/07/04 02:31:13;;;;;;;15.35;3.22;;;26.70;71.70;;;;;;5041715;28;20531;-63
2022/07/04 02:33:39;;;;;;;17.92;2.90;;;26.70;72.10;;;;;;5040806;28;20120;-61
2022/07/04 02:36:05;;;;;;;22.83;3.15;;;26.60;72.20;;;;;;5038733;28;20103;-62
2022/07/04 02:38:30;;;;;;;15.18;2.90;;;26.60;72.40;;;;;;5038216;28;20276;-62
2022/07/04 02:40:56;;;;;;;16.67;2.80;;;26.60;72.60;;;;;;5038605;28;20090;-62
2022/07/04 02:43:21;;;;;;;23.52;3.30;;;26.50;72.70;;;;;;5041153;28;20033;-62
2022/07/04 02:45:47;;;;;;;10.52;2.45;;;26.50;72.90;;;;;;5040223;28;20143;-62
2022/07/04 02:48:12;;;;;;;14.45;3.10;;;26.40;72.90;;;;;;5038368;28;20029;-63
2022/07/04 02:50:38;;;;;;;16.40;2.95;;;26.40;73.20;;;;;;5040932;28;20056;-62
2022/07/04 02:53:03;;;;;;;10.45;2.22;;;26.40;73.20;;;;;;5041106;28;20079;-61
2022/07/04 02:55:29;;;;;;;14.13;2.83;;;26.30;73.40;;;;;;5040927;28;20445;-61
2022/07/04 02:57:54;;;;;;;12.60;2.78;;;26.40;73.50;;;;;;5040913;28;20041;-62
2022/07/04 03:00:20;;;;;;;15.80;3.10;;;26.30;73.60;;;;;;5037292;28;20037;-63
2022/07/04 03:02:45;;;;;;;8.50;2.42;;;26.30;73.70;;;;;;5038206;28;20029;-63
2022/07/04 03:05:11;;;;;;;11.23;3.03;;;26.30;73.90;;;;;;5034608;28;20033;-64
2022/07/04 03:07:36;;;;;;;10.35;2.80;;;26.20;73.90;;;;;;5039969;28;20369;-61
2022/07/04 03:10:02;;;;;;;8.60;2.55;;;26.20;74.00;;;;;;5039945;28;20102;-62
2022/07/04 03:12:27;;;;;;;8.00;2.25;;;26.20;74.10;;;;;;5044438;28;20269;-62
2022/07/04 03:14:53;;;;;;;6.93;2.28;;;26.10;74.20;;;;;;5041083;28;20129;-62
2022/07/04 03:17:19;;;;;;;9.40;2.28;;;26.10;74.10;;;;;;5044456;28;20051;-61
2022/07/04 03:19:45;;;;;;;11.82;2.55;;;26.10;74.20;;;;;;5040672;28;20425;-61
2022/07/04 03:22:10;;;;;;;7.03;2.08;;;26.10;74.40;;;;;;5026489;28;20048;-61
2022/07/04 03:24:36;;;;;;;8.80;2.50;;;26.00;74.50;;;;;;5045128;28;20032;-63
2022/07/04 03:27:01;;;;;;;7.13;2.42;;;26.00;74.50;;;;;;5042524;28;20124;-62
2022/07/04 03:29:27;;;;;;;13.90;2.65;;;26.00;74.60;;;;;;5038567;28;20056;-63
2022/07/04 03:31:52;;;;;;;12.13;2.42;;;26.00;74.60;;;;;;5041897;28;20429;-61
2022/07/04 03:34:18;;;;;;;10.45;2.35;;;25.90;74.60;;;;;;5025083;28;20555;-61
2022/07/04 03:36:43;;;;;;;9.43;2.30;;;25.90;74.70;;;;;;5041322;28;20372;-61
2022/07/04 03:39:09;;;;;;;6.75;2.10;;;25.90;74.70;;;;;;5039619;28;20132;-61
2022/07/04 03:41:36;;;;;;;8.02;2.50;;;25.80;74.70;;;;;;5043268;28;20264;-61
2022/07/04 03:44:01;;;;;;;5.80;2.10;;;25.80;74.70;;;;;;5042044;28;20017;-62
2022/07/04 03:46:27;;;;;;;5.97;1.83;;;25.80;74.80;;;;;;5043454;28;20041;-62
2022/07/04 03:48:53;;;;;;;7.35;2.28;;;25.80;75.10;;;;;;5025044;28;20450;-61
2022/07/04 03:51:18;;;;;;;10.48;2.08;;;25.80;75.00;;;;;;5044546;28;20070;-61
2022/07/04 03:53:44;;;;;;;6.90;2.00;;;25.70;75.00;;;;;;5036750;28;20075;-61
2022/07/04 03:56:09;;;;;;;4.15;1.92;;;25.70;75.20;;;;;;5042238;28;20071;-61
2022/07/04 03:58:35;;;;;;;5.53;1.88;;;25.70;75.20;;;;;;5041914;28;20677;-61
2022/07/04 04:01:01;;;;;;;7.18;2.05;;;25.60;75.30;;;;;;5042423;28;20326;-61
2022/07/04 04:06:10;;;;;;;6.53;1.88;;;25.60;75.50;;;;;;5043131;28;20221;-61
2022/07/04 04:08:36;;;;;;;6.95;2.03;;;25.60;75.60;;;;;;5040345;28;20045;-61
2022/07/04 04:11:01;;;;;;;5.30;2.17;;;25.60;75.70;;;;;;5042189;28;20445;-61
2022/07/04 04:13:27;;;;;;;4.88;1.92;;;25.60;75.80;;;;;;5041788;28;20036;-61
2022/07/04 04:15:52;;;;;;;4.07;1.65;;;25.50;75.90;;;;;;5041375;28;20067;-62
2022/07/04 04:18:18;;;;;;;6.90;1.90;;;25.50;76.00;;;;;;5039826;28;20333;-60
2022/07/04 04:20:43;;;;;;;9.27;2.17;;;25.50;76.20;;;;;;5038185;28;20381;-60
2022/07/04 04:23:09;;;;;;;2.38;1.58;;;25.50;76.30;;;;;;5041090;28;20033;-61
2022/07/04 04:25:34;;;;;;;6.15;1.98;;;25.50;76.50;;;;;;5042431;28;20068;-61
2022/07/04 04:28:00;;;;;;;7.85;2.25;;;25.40;76.50;;;;;;5039916;28;20468;-60
2022/07/04 04:30:25;;;;;;;4.22;1.70;;;25.40;76.50;;;;;;5042907;28;20056;-61
2022/07/04 04:32:51;;;;;;;6.43;1.88;;;25.40;76.60;;;;;;5040898;28;20107;-61
2022/07/04 04:35:16;;;;;;;11.00;2.20;;;25.40;76.60;;;;;;5038591;28;20033;-61
2022/07/04 04:37:42;;;;;;;5.60;2.05;;;25.40;76.70;;;;;;5038720;28;20024;-61
2022/07/04 04:40:08;;;;;;;4.57;1.55;;;25.30;76.70;;;;;;5042916;28;20480;-61
2022/07/04 04:42:33;;;;;;;2.90;1.73;;;25.30;76.70;;;;;;5043666;28;20496;-61
2022/07/04 04:44:59;;;;;;;8.05;1.80;;;25.30;76.70;;;;;;5040624;28;20104;-61
2022/07/04 04:47:24;;;;;;;4.60;1.90;;;25.30;76.90;;;;;;5040994;28;20076;-61
2022/07/04 04:49:50;;;;;;;4.35;1.60;;;25.30;77.10;;;;;;5040513;28;20025;-62
2022/07/04 04:52:15;;;;;;;4.05;1.83;;;25.20;77.00;;;;;;5043824;28;20021;-62
2022/07/04 04:54:41;;;;;;;4.60;1.75;;;25.20;77.00;;;;;;5041273;28;20033;-62
2022/07/04 04:57:06;;;;;;;5.40;1.77;;;25.20;77.10;;;;;;5039718;28;20051;-61
2022/07/04 04:59:32;;;;;;;5.25;1.95;;;25.20;77.20;;;;;;5039763;28;20057;-62
2022/07/04 05:01:58;;;;;;;3.08;1.50;;;25.20;77.90;;;;;;5039290;28;20093;-60
2022/07/04 05:04:24;;;;;;;3.60;1.60;;;25.20;77.30;;;;;;5023498;28;20556;-61
2022/07/04 05:06:50;;;;;;;3.47;1.60;;;25.20;77.10;;;;;;5041441;28;20263;-61
2022/07/04 05:09:15;;;;;;;2.42;1.42;;;25.20;77.10;;;;;;5041183;28;20041;-61
2022/07/04 05:11:41;;;;;;;3.83;1.63;;;25.10;76.90;;;;;;5042305;28;20033;-61
2022/07/04 05:14:06;;;;;;;4.20;1.45;;;25.10;77.20;;;;;;5034223;28;20045;-61
2022/07/04 05:16:32;;;;;;;2.67;1.45;;;25.10;77.30;;;;;;5022605;28;20025;-61
2022/07/04 05:18:57;;;;;;;3.92;1.70;;;25.10;77.40;;;;;;5040594;28;20029;-61
2022/07/04 05:21:26;;;;;;;7.18;1.92;;;25.00;77.50;;;;;;5042759;28;20466;-60
2022/07/04 05:23:51;;;;;;;3.83;1.70;;;25.00;77.40;;;;;;5041123;28;20026;-61
2022/07/04 05:26:17;;;;;;;5.25;1.60;;;25.00;77.40;;;;;;5041655;28;20039;-61
2022/07/04 05:28:42;;;;;;;3.70;1.58;;;25.00;77.20;;;;;;5039739;28;20106;-61
2022/07/04 05:31:08;;;;;;;4.07;1.80;;;25.00;77.20;;;;;;5039985;28;20037;-62
2022/07/04 05:33:33;;;;;;;4.93;1.58;;;25.00;77.30;;;;;;5038479;28;20037;-62
2022/07/04 05:35:59;;;;;;;4.32;1.58;;;25.00;77.30;;;;;;5038602;28;20222;-61
2022/07/04 05:38:24;;;;;;;6.65;1.83;;;24.90;77.30;;;;;;5039491;28;20199;-62
2022/07/04 05:40:50;;;;;;;2.28;1.40;;;25.00;77.50;;;;;;5040564;28;20534;-61
2022/07/04 05:43:16;;;;;;;6.10;1.73;;;24.90;77.70;;;;;;5041284;28;20346;-61
2022/07/04 05:45:41;;;;;;;3.22;1.50;;;24.90;78.00;;;;;;5039765;28;20091;-61
2022/07/04 05:48:07;;;;;;;3.17;1.88;;;24.90;78.00;;;;;;5039254;28;20102;-60
2022/07/04 05:50:32;;;;;;;3.22;1.80;;;24.80;77.90;;;;;;5036961;28;20029;-61
2022/07/04 05:52:58;;;;;;;3.40;1.95;;;24.90;78.00;;;;;;5039819;28;20131;-61
2022/07/04 05:55:23;;;;;;;3.95;1.90;;;24.90;78.00;;;;;;5038797;28;20075;-61
2022/07/04 05:57:49;;;;;;;3.03;1.45;;;24.90;78.00;;;;;;5038922;28;20883;-61
2022/07/04 06:00:14;;;;;;;9.23;2.00;;;24.80;78.00;;;;;;5038461;28;20021;-62
2022/07/04 06:02:41;;;;;;;5.05;1.67;;;24.90;78.10;;;;;;5041211;28;20445;-61
2022/07/04 06:05:07;;;;;;;3.72;2.00;;;24.90;78.50;;;;;;5038096;28;20033;-61
2022/07/04 06:07:32;;;;;;;5.95;1.90;;;24.80;79.10;;;;;;5037410;28;20033;-61
2022/07/04 06:09:58;;;;;;;4.45;1.90;;;24.80;79.30;;;;;;5038833;28;20037;-61
2022/07/04 06:12:23;;;;;;;6.75;1.55;;;24.80;79.40;;;;;;5023551;28;20094;-61
2022/07/04 06:14:49;;;;;;;3.22;1.67;;;24.80;79.80;;;;;;5034066;28;20408;-61
2022/07/04 06:17:14;;;;;;;3.25;1.70;;;24.70;80.00;;;;;;5037678;28;20536;-61
2022/07/04 06:19:40;;;;;;;4.15;1.33;;;24.70;79.70;;;;;;5019710;28;20052;-61
2022/07/04 06:22:05;;;;;;;4.85;1.90;;;24.70;80.00;;;;;;5023868;28;20102;-61
2022/07/04 06:24:31;;;;;;;2.30;1.88;;;24.70;80.40;;;;;;5023716;28;20060;-61
2022/07/04 06:26:56;;;;;;;2.83;1.60;;;24.70;80.30;;;;;;5038244;28;20033;-61
2022/07/04 06:29:22;;;;;;;1.98;1.40;;;24.70;80.70;;;;;;5035988;28;20116;-61
2022/07/04 06:31:48;;;;;;;3.72;2.00;;;24.70;81.00;;;;;;5038097;28;20172;-61
2022/07/04 06:36:57;;;;;;;2.80;1.52;;;24.60;81.50;;;;;;5031456;28;20105;-61
2022/07/04 06:39:23;;;;;;;5.75;1.75;;;24.60;82.10;;;;;;5035521;28;20061;-61
2022/07/04 06:41:48;;;;;;;3.67;1.40;;;24.60;82.40;;;;;;5034806;28;20500;-61
2022/07/04 06:44:14;;;;;;;2.78;1.73;;;24.50;83.20;;;;;;5031482;28;21103;-61
2022/07/04 06:46:39;;;;;;;6.50;2.00;;;24.50;84.20;;;;;;5029657;28;20037;-61
2022/07/04 06:49:05;;;;;;;3.17;1.33;;;24.50;83.60;;;;;;5029770;28;20283;-61
2022/07/04 06:51:30;;;;;;;3.50;1.70;;;24.40;83.40;;;;;;5033039;28;20025;-61
2022/07/04 06:53:56;;;;;;;6.22;1.85;;;24.40;83.50;;;;;;5034072;28;20648;-61
2022/07/04 06:56:21;;;;;;;4.03;1.83;;;24.40;83.60;;;;;;5033274;28;20451;-61
2022/07/04 06:58:47;;;;;;;6.28;1.80;;;24.40;83.60;;;;;;5016816;28;20666;-61
2022/07/04 07:01:14;;;;;;;4.05;1.92;;;24.40;83.60;;;;;;5038535;28;20453;-61
2022/07/04 07:03:39;;;;;;;4.32;2.25;;;24.40;83.80;;;;;;5019570;28;20044;-62
2022/07/04 07:06:05;;;;;;;2.80;1.90;;;24.40;83.90;;;;;;5032890;28;20029;-62
2022/07/04 07:08:30;;;;;;;13.90;2.53;;;24.40;83.90;;;;;;5034252;28;20044;-61
2022/07/04 07:10:56;;;;;;;8.70;2.63;;;24.40;84.00;;;;;;5032618;28;20428;-61
2022/07/04 07:13:22;;;;;;;27.17;3.40;;;24.40;83.90;;;;;;5036785;28;20428;-61
2022/07/04 07:15:47;;;;;;;12.88;2.55;;;24.40;84.10;;;;;;5025516;28;20118;-61
2022/07/04 07:18:13;;;;;;;8.85;2.03;;;24.40;84.40;;;;;;5021874;28;20393;-61
2022/07/04 07:20:39;;;;;;;11.38;2.42;;;24.40;84.40;;;;;;5028154;28;20037;-62
2022/07/04 07:23:04;;;;;;;14.23;3.38;;;24.40;84.70;;;;;;5026692;28;21013;-61
2022/07/04 07:25:30;;;;;;;34.58;5.50;;;24.40;84.50;;;;;;5030913;28;20576;-61
2022/07/04 07:27:56;;;;;;;43.15;5.78;;;24.40;84.20;;;;;;5030449;28;20034;-61
2022/07/04 07:30:21;;;;;;;45.25;5.68;;;24.40;84.50;;;;;;5032045;28;20492;-61
2022/07/04 07:32:47;;;;;;;54.47;6.32;;;24.40;84.70;;;;;;5021713;28;20084;-60
2022/07/04 07:35:12;;;;;;;70.97;8.95;;;24.50;84.70;;;;;;5027307;28;20083;-60
2022/07/04 07:37:38;;;;;;;53.67;7.13;;;24.40;85.00;;;;;;5007831;28;20533;-61
2022/07/04 07:40:04;;;;;;;30.83;4.22;;;24.40;84.80;;;;;;4999158;28;20047;-61
2022/07/04 07:42:30;;;;;;;19.25;4.13;;;24.40;85.20;;;;;;5024101;28;20046;-61
2022/07/04 07:44:56;;;;;;;22.35;3.88;;;24.40;85.60;;;;;;5024197;28;20048;-61
2022/07/04 07:47:21;;;;;;;67.78;8.65;;;24.40;85.10;;;;;;5033633;28;20055;-61
2022/07/04 07:49:47;;;;;;;32.33;4.75;;;24.40;84.70;;;;;;5026218;28;20683;-61
2022/07/04 07:52:14;;;;;;;27.20;4.47;;;24.40;84.70;;;;;;5028383;28;20037;-62
2022/07/04 07:54:39;;;;;;;29.58;4.95;;;24.40;84.60;;;;;;5015307;28;20198;-60
2022/07/04 07:57:05;;;;;;;42.08;4.57;;;24.40;84.40;;;;;;5029486;28;20551;-61
2022/07/04 07:59:30;;;;;;;32.38;5.00;;;24.50;84.50;;;;;;5029336;28;20091;-62
2022/07/04 08:01:56;;;;;;;37.20;4.47;;;24.40;84.40;;;;;;5026202;28;20521;-61
2022/07/04 08:04:34;;;;;;;29.85;4.18;;;24.40;84.20;;;;;;5031222;28;20180;-61
2022/07/04 08:06:59;;;;;;;19.90;4.05;;;24.50;84.30;;;;;;5030196;28;20108;-62
2022/07/04 08:09:25;;;;;;;24.40;4.03;;;24.70;84.00;;;;;;5034364;28;21375;-60
2022/07/04 08:11:50;;;;;;;30.17;5.32;;;24.50;83.60;;;;;;5028328;28;20110;-62
2022/07/04 08:14:17;;;;;;;34.85;5.28;;;24.60;83.70;;;;;;5028779;28;20025;-62
2022/07/04 08:16:42;;;;;;;28.52;4.05;;;24.60;83.70;;;;;;5016937;28;20049;-61
2022/07/04 08:19:08;;;;;;;65.07;6.65;;;24.60;84.00;;;;;;5031605;28;20040;-62
2022/07/04 08:21:34;;;;;;;53.75;7.47;;;24.60;84.10;;;;;;5032050;28;20040;-62
2022/07/04 08:23:59;;;;;;;36.05;5.65;;;24.60;84.10;;;;;;5035998;28;20025;-62
2022/07/04 08:26:25;;;;;;;47.97;6.60;;;24.60;84.20;;;;;;5030063;28;20151;-61
2022/07/04 08:28:51;;;;;;;35.05;6.00;;;24.60;84.00;;;;;;5031851;28;20079;-62
2022/07/04 08:31:18;;;;;;;40.28;6.20;;;24.60;83.70;;;;;;5029982;28;20033;-63
2022/07/04 08:33:43;;;;;;;51.60;7.18;;;24.70;83.70;;;;;;5028783;28;20424;-61
2022/07/04 08:36:09;;;;;;;37.03;6.10;;;24.60;83.40;;;;;;5029338;28;20044;-62
2022/07/04 08:38:34;;;;;;;31.35;6.18;;;24.60;83.50;;;;;;5027552;28;20466;-61
2022/07/04 08:41:02;;;;;;;48.53;7.00;;;24.70;83.70;;;;;;5031397;28;20041;-61
2022/07/04 08:43:28;;;;;;;50.13;7.05;;;24.70;83.60;;;;;;5017346;28;20032;-61
2022/07/04 08:45:54;;;;;;;49.55;6.90;;;24.70;83.70;;;;;;5009887;28;20032;-62
2022/07/04 08:48:23;;;;;;;50.00;6.93;;;24.80;84.80;;;;;;5034785;28;20033;-61
2022/07/04 08:50:49;;;;;;;64.25;8.40;;;24.80;83.60;;;;;;5031191;28;20033;-62
2022/07/04 08:53:18;;;;;;;93.30;9.93;;;24.80;84.10;;;;;;5013844;28;20055;-62
2022/07/04 08:58:30;;;;;;;86.15;10.15;;;24.80;84.60;;;;;;5008410;28;20060;-62
2022/07/04 09:01:00;;;;;;;75.07;10.68;;;24.80;84.20;;;;;;5022437;28;20025;-61
2022/07/04 09:03:26;;;;;;;97.68;10.00;;;24.80;84.60;;;;;;5027767;28;20332;-62
2022/07/04 09:05:52;;;;;;;100.43;11.80;;;24.80;84.40;;;;;;5019560;28;20055;-63
2022/07/04 09:08:18;;;;;;;69.32;10.15;;;24.80;84.60;;;;;;4998229;28;20036;-61
2022/07/04 09:10:43;;;;;;;85.18;10.65;;;24.80;84.70;;;;;;5028854;28;20056;-63
2022/07/04 09:13:10;;;;;;;70.22;9.95;;;24.80;84.50;;;;;;5030433;28;20163;-62
2022/07/04 09:15:35;;;;;;;66.15;11.02;;;24.80;84.40;;;;;;5029618;28;20033;-63
2022/07/04 09:18:01;;;;;;;90.47;11.68;;;24.80;84.40;;;;;;5022346;28;20486;-61
2022/07/04 09:20:27;;;;;;;87.88;12.32;;;24.90;84.60;;;;;;5000400;28;20036;-62
2022/07/04 09:22:53;;;;;;;77.10;10.52;;;24.90;84.70;;;;;;5031855;28;20055;-62
2022/07/04 09:25:19;;;;;;;77.07;11.32;;;24.90;84.60;;;;;;5029777;28;20128;-63
2022/07/04 09:27:55;;;;;;;85.43;11.25;;;24.90;85.40;;;;;;5013680;28;20132;-61
2022/07/04 09:30:25;;;;;;;72.03;10.02;;;25.00;84.90;;;;;;5011400;28;20026;-61
2022/07/04 09:32:54;;;;;;;67.07;10.10;;;24.90;84.60;;;;;;5036670;28;20036;-62
2022/07/04 09:35:23;;;;;;;69.72;9.18;;;25.00;84.30;;;;;;5030229;28;20032;-62
2022/07/04 09:37:57;;;;;;;89.07;12.32;;;25.00;84.40;;;;;;5016482;28;20034;-61
2022/07/04 09:41:24;;;;;;;72.32;10.05;;;25.00;84.10;;;;;;5011285;28;20040;-62
2022/07/04 09:43:21;;;;;;;77.20;10.73;;;25.10;84.00;;;;;;5031767;28;20032;-62
2022/07/04 09:45:58;;;;;;;87.13;11.57;;;25.10;84.30;;;;;;5007749;28;20458;-62
2022/07/04 09:48:24;;;;;;;81.85;11.50;;;25.10;83.90;;;;;;5032858;28;20033;-61
2022/07/04 09:50:50;;;;;;;82.05;11.23;;;25.20;83.80;;;;;;5027988;28;20029;-62
2022/07/04 09:53:15;;;;;;;72.18;10.07;;;25.20;83.60;;;;;;5014216;28;20029;-61
2022/07/04 09:55:41;;;;;;;80.45;11.70;;;25.20;83.60;;;;;;5038697;28;20041;-63
2022/07/04 09:58:08;;;;;;;86.35;10.63;;;25.20;83.30;;;;;;5034521;28;20041;-62
2022/07/04 10:00:36;;;;;;;80.97;11.55;;;25.30;83.40;;;;;;5028757;28;20345;-62
2022/07/04 10:03:20;;;;;;;87.18;13.40;;;25.30;83.20;;;;;;5022513;28;20469;-62
2022/07/04 10:05:46;;;;;;;92.20;11.93;;;25.30;83.00;;;;;;5030535;28;20056;-62
2022/07/04 10:08:12;;;;;;;78.50;10.15;;;25.40;83.00;;;;;;5013287;28;20044;-61
2022/07/04 10:10:42;;;;;;;98.25;12.75;;;25.40;82.90;;;;;;5037240;28;20040;-61
2022/07/04 10:13:12;;;;;;;76.75;11.48;;;25.40;82.70;;;;;;5017122;28;20062;-62
2022/07/04 10:15:39;;;;;;;76.75;11.25;;;25.40;82.60;;;;;;5025716;28;20099;-61
2022/07/04 10:18:05;;;;;;;84.25;10.70;;;25.50;82.30;;;;;;5032993;28;20052;-61
2022/07/04 10:20:31;;;;;;;75.25;10.13;;;25.50;82.10;;;;;;5033218;28;20142;-61
2022/07/04 10:22:57;;;;;;;71.20;10.75;;;25.50;82.20;;;;;;5031456;28;20132;-62
2022/07/04 10:25:22;;;;;;;73.85;9.43;;;25.50;82.10;;;;;;5036655;28;20044;-63
2022/07/04 10:27:50;;;;;;;88.50;11.15;;;25.50;82.00;;;;;;5029180;28;20588;-61
2022/07/04 10:30:34;;;;;;;81.53;10.57;;;25.60;82.00;;;;;;5030023;28;20037;-62
2022/07/04 10:33:01;;;;;;;66.50;9.35;;;25.60;81.90;;;;;;5019806;28;20043;-62
2022/07/04 10:35:56;;;;;;;79.72;11.35;;;25.60;81.60;;;;;;5013610;28;20025;-62
2022/07/04 10:38:25;;;;;;;76.50;11.30;;;25.70;81.70;;;;;;5023194;28;20075;-62
2022/07/04 10:40:59;;;;;;;69.63;9.20;;;25.80;81.50;;;;;;5033751;28;20112;-62
2022/07/04 10:46:26;;;;;;;69.50;9.57;;;25.80;81.20;;;;;;5029891;28;20051;-62
2022/07/04 10:48:58;;;;;;;155.30;14.55;;;25.90;81.20;;;;;;5031501;28;20448;-62
2022/07/04 10:51:47;;;;;;;66.80;10.38;;;25.90;81.70;;;;;;5025238;28;20366;-62
2022/07/04 10:54:32;;;;;;;70.25;10.32;;;26.00;81.10;;;;;;5038733;28;20037;-62
2022/07/04 10:57:13;;;;;;;68.93;10.60;;;26.00;81.10;;;;;;5030278;28;20150;-62
2022/07/04 10:59:40;;;;;;;80.80;11.60;;;26.00;81.00;;;;;;5032165;28;20037;-62
2022/07/04 11:02:06;;;;;;;74.57;10.68;;;26.10;80.90;;;;;;5010022;28;20040;-63
2022/07/04 11:04:50;;;;;;;78.47;10.15;;;26.10;80.70;;;;;;5028710;28;20454;-62
2022/07/04 11:07:16;;;;;;;61.67;9.82;;;26.10;80.30;;;;;;5026859;28;20492;-64
2022/07/04 11:09:42;;;;;;;71.80;10.50;;;26.10;80.10;;;;;;5033718;28;20127;-62
2022/07/04 11:12:08;;;;;;;85.28;11.52;;;26.10;80.10;;;;;;5011826;28;20032;-62
2022/07/04 11:14:47;;;;;;;73.22;10.05;;;26.20;80.00;;;;;;5026366;28;20025;-62
2022/07/04 11:17:32;;;;;;;78.40;10.80;;;26.20;79.90;;;;;;5024823;28;20326;-62
2022/07/04 11:20:07;;;;;;;73.93;11.48;;;26.20;79.90;;;;;;5031812;28;20032;-63
2022/07/04 11:22:32;;;;;;;72.03;9.38;;;26.30;79.80;;;;;;5017397;28;20072;-63
2022/07/04 11:24:58;;;;;;;66.00;9.77;;;26.30;79.40;;;;;;5020460;28;20179;-63
2022/07/04 11:27:24;;;;;;;63.10;7.90;;;26.40;79.00;;;;;;5012342;28;20163;-63
2022/07/04 11:29:53;;;;;;;34.25;6.35;;;26.40;78.70;;;;;;5027904;28;20053;-63
2022/07/04 11:32:19;;;;;;;45.80;7.40;;;26.40;78.60;;;;;;5010330;28;20039;-62
2022/07/04 11:34:46;;;;;;;50.60;8.48;;;26.50;78.80;;;;;;5033953;28;20597;-63
2022/07/04 11:37:11;;;;;;;27.95;6.03;;;26.60;78.80;;;;;;5031812;28;20029;-62
2022/07/04 11:39:37;;;;;;;27.02;6.57;;;26.60;78.20;;;;;;5016254;28;20719;-63
2022/07/04 11:45:02;;;;;;;41.28;7.22;;;26.80;77.80;;;;;;5037641;28;20164;-63
2022/07/04 11:47:38;;;;;;;27.13;5.63;;;26.90;77.50;;;;;;5032917;28;20024;-63
2022/07/04 11:50:11;;;;;;;24.70;5.55;;;26.90;77.10;;;;;;5033562;28;20501;-63
2022/07/04 11:52:37;;;;;;;25.95;6.00;;;27.00;76.70;;;;;;5023263;28;20560;-63
2022/07/04 11:55:03;;;;;;;30.20;5.13;;;27.10;76.50;;;;;;5020627;28;20033;-63
2022/07/04 11:57:32;;;;;;;19.25;4.15;;;27.20;76.00;;;;;;5028295;28;20079;-63
2022/07/04 11:59:59;;;;;;;27.17;5.82;;;27.30;76.10;;;;;;5014250;28;20029;-62
2022/07/04 12:02:26;;;;;;;20.70;4.03;;;27.40;75.90;;;;;;5033086;28;20041;-63
2022/07/04 12:04:51;;;;;;;14.10;4.07;;;27.40;75.10;;;;;;5032286;28;20048;-63
2022/07/04 12:07:18;;;;;;;13.27;4.03;;;27.50;75.40;;;;;;5029498;28;20029;-62
2022/07/04 12:09:45;;;;;;;21.00;3.95;;;27.50;75.40;;;;;;4994467;28;20041;-62
2022/07/04 12:12:11;;;;;;;17.88;4.03;;;27.50;75.50;;;;;;5004276;28;20079;-62
2022/07/04 12:14:37;;;;;;;15.38;4.22;;;27.50;74.50;;;;;;5023847;28;20021;-61
2022/07/04 12:17:14;;;;;;;17.02;3.33;;;27.50;74.90;;;;;;5029346;28;20044;-61
2022/07/04 12:19:53;;;;;;;19.30;3.38;;;27.50;75.00;;;;;;5030989;28;20033;-61
2022/07/04 12:22:51;;;;;;;14.85;4.50;;;27.50;74.80;;;;;;5015421;28;20021;-62
2022/07/04 12:25:24;;;;;;;26.58;4.63;;;27.60;74.20;;;;;;5034568;28;20029;-62
2022/07/04 12:28:06;;;;;;;15.60;3.13;;;27.60;72.40;;;;;;5037862;28;20485;-62
2022/07/04 12:30:38;;;;;;;12.07;3.30;;;27.70;72.70;;;;;;5032883;28;20409;-62
2022/07/04 12:33:08;;;;;;;23.75;4.00;;;27.70;72.00;;;;;;5016607;28;20134;-62
2022/07/04 12:35:34;;;;;;;26.15;3.80;;;27.80;72.70;;;;;;5030223;28;20029;-64
2022/07/04 12:38:10;;;;;;;16.58;3.60;;;27.80;70.80;;;;;;5031781;28;20582;-62
2022/07/04 12:40:36;;;;;;;27.10;4.05;;;27.90;71.80;;;;;;5016162;28;20068;-62
2022/07/04 12:43:02;;;;;;;13.23;2.97;;;27.90;71.70;;;;;;5021848;28;20078;-62
2022/07/04 12:45:44;;;;;;;13.27;3.42;;;28.00;71.80;;;;;;5034195;28;20386;-62
2022/07/04 12:48:26;;;;;;;27.15;3.95;;;28.10;71.00;;;;;;5035289;28;20416;-61
2022/07/04 12:50:52;;;;;;;14.02;3.58;;;28.10;70.00;;;;;;5017905;28;20401;-62
2022/07/04 12:53:18;;;;;;;13.38;2.90;;;28.20;69.60;;;;;;5029607;28;20041;-62
2022/07/04 12:55:44;;;;;;;15.07;2.40;;;28.20;70.20;;;;;;5018456;28;20031;-62
2022/07/04 12:58:10;;;;;;;17.08;2.78;;;28.30;70.00;;;;;;5005632;28;20025;-62